sensor_id;sensor_type;location;lat;lon;timestamp;temperature;humidity
11399;DHT22;5755;48.116;11.608;2024-02-04T00:00:36;7.10;94.70
11399;DHT22;5755;48.116;11.608;2024-02-04T00:03:03;7.10;94.80
11399;DHT22;5755;48.116;11.608;2024-02-04T00:05:30;7.00;95.00
11399;DHT22;5755;48.116;11.608;2024-02-04T00:07:57;7.00;95.20
11399;DHT22;5755;48.116;11.608;2024-02-04T00:10:24;6.90;95.50
11399;DHT22;5755;48.116;11.608;2024-02-04T00:12:54;7.00;95.50
11399;DHT22;5755;48.116;11.608;2024-02-04T00:15:21;6.90;95.50
11399;DHT22;5755;48.116;11.608;2024-02-04T00:17:48;7.00;95.50
11399;DHT22;5755;48.116;11.608;2024-02-04T00:20:15;7.00;95.10
11399;DHT22;5755;48.116;11.608;2024-02-04T00:22:42;7.00;95.50
11399;DHT22;5755;48.116;11.608;2024-02-04T00:25:08;6.90;95.50
11399;DHT22;5755;48.116;11.608;2024-02-04T00:27:37;6.90;95.50
11399;DHT22;5755;48.116;11.608;2024-02-04T00:30:07;7.00;95.50
11399;DHT22;5755;48.116;11.608;2024-02-04T00:32:34;6.90;95.50
11399;DHT22;5755;48.116;11.608;2024-02-04T00:35:01;6.90;95.50
11399;DHT22;5755;48.116;11.608;2024-02-04T00:37:28;6.90;95.50
11399;DHT22;5755;48.116;11.608;2024-02-04T00:39:55;6.90;95.50
11399;DHT22;5755;48.116;11.608;2024-02-04T00:42:22;6.90;95.50
11399;DHT22;5755;48.116;11.608;2024-02-04T00:44:48;6.80;95.40
11399;DHT22;5755;48.116;11.608;2024-02-04T00:47:17;6.80;95.60
11399;DHT22;5755;48.116;11.608;2024-02-04T00:49:44;6.80;95.40
11399;DHT22;5755;48.116;11.608;2024-02-04T00:52:11;6.90;95.50
11399;DHT22;5755;48.116;11.608;2024-02-04T00:54:38;6.80;95.40
11399;DHT22;5755;48.116;11.608;2024-02-04T00:57:04;6.80;95.50
11399;DHT22;5755;48.116;11.608;2024-02-04T00:59:31;6.80;95.40
11399;DHT22;5755;48.116;11.608;2024-02-04T01:01:58;6.90;95.50
11399;DHT22;5755;48.116;11.608;2024-02-04T01:04:26;6.90;95.50
11399;DHT22;5755;48.116;11.608;2024-02-04T01:06:54;6.80;95.40
11399;DHT22;5755;48.116;11.608;2024-02-04T01:09:21;6.80;95.50
11399;DHT22;5755;48.116;11.608;2024-02-04T01:11:48;6.80;95.40
11399;DHT22;5755;48.116;11.608;2024-02-04T01:14:14;6.70;95.40
11399;DHT22;5755;48.116;11.608;2024-02-04T01:16:41;6.70;95.50
11399;DHT22;5755;48.116;11.608;2024-02-04T01:19:08;6.60;95.40
11399;DHT22;5755;48.116;11.608;2024-02-04T01:21:36;6.60;95.90
11399;DHT22;5755;48.116;11.608;2024-02-04T01:24:04;6.60;96.40
11399;DHT22;5755;48.116;11.608;2024-02-04T01:26:31;6.60;95.60
11399;DHT22;5755;48.116;11.608;2024-02-04T01:28:58;6.70;95.90
11399;DHT22;5755;48.116;11.608;2024-02-04T01:31:27;6.60;95.40
11399;DHT22;5755;48.116;11.608;2024-02-04T01:33:53;6.60;95.80
11399;DHT22;5755;48.116;11.608;2024-02-04T01:36:22;6.60;95.90
11399;DHT22;5755;48.116;11.608;2024-02-04T01:38:50;6.50;95.80
11399;DHT22;5755;48.116;11.608;2024-02-04T01:41:17;6.40;96.00
11399;DHT22;5755;48.116;11.608;2024-02-04T01:43:44;6.30;96.50
11399;DHT22;5755;48.116;11.608;2024-02-04T01:46:11;6.20;97.00
11399;DHT22;5755;48.116;11.608;2024-02-04T01:48:39;6.20;96.90
11399;DHT22;5755;48.116;11.608;2024-02-04T01:51:06;6.20;96.90
11399;DHT22;5755;48.116;11.608;2024-02-04T01:53:34;6.20;97.20
11399;DHT22;5755;48.116;11.608;2024-02-04T01:56:05;6.20;97.20
11399;DHT22;5755;48.116;11.608;2024-02-04T01:58:32;6.10;97.20
11399;DHT22;5755;48.116;11.608;2024-02-04T02:00:59;6.20;97.30
11399;DHT22;5755;48.116;11.608;2024-02-04T02:03:26;6.20;97.30
11399;DHT22;5755;48.116;11.608;2024-02-04T02:05:55;6.30;97.10
11399;DHT22;5755;48.116;11.608;2024-02-04T02:08:22;6.40;97.00
11399;DHT22;5755;48.116;11.608;2024-02-04T02:10:52;6.40;96.60
11399;DHT22;5755;48.116;11.608;2024-02-04T02:13:27;6.40;96.40
11399;DHT22;5755;48.116;11.608;2024-02-04T02:16:01;6.40;96.40
11399;DHT22;5755;48.116;11.608;2024-02-04T02:18:34;6.40;96.20
11399;DHT22;5755;48.116;11.608;2024-02-04T02:21:13;6.40;95.90
11399;DHT22;5755;48.116;11.608;2024-02-04T02:23:51;6.50;96.30
11399;DHT22;5755;48.116;11.608;2024-02-04T02:26:22;6.60;95.80
11399;DHT22;5755;48.116;11.608;2024-02-04T02:28:49;6.50;95.80
11399;DHT22;5755;48.116;11.608;2024-02-04T02:31:16;6.50;95.60
11399;DHT22;5755;48.116;11.608;2024-02-04T02:33:42;6.40;95.70
11399;DHT22;5755;48.116;11.608;2024-02-04T02:36:13;6.30;96.00
11399;DHT22;5755;48.116;11.608;2024-02-04T02:38:46;6.30;96.10
11399;DHT22;5755;48.116;11.608;2024-02-04T02:41:16;6.30;96.30
11399;DHT22;5755;48.116;11.608;2024-02-04T02:43:46;6.40;96.80
11399;DHT22;5755;48.116;11.608;2024-02-04T02:46:14;6.30;96.50
11399;DHT22;5755;48.116;11.608;2024-02-04T02:48:41;6.30;96.10
11399;DHT22;5755;48.116;11.608;2024-02-04T02:51:08;6.30;96.30
11399;DHT22;5755;48.116;11.608;2024-02-04T02:53:35;6.30;96.20
11399;DHT22;5755;48.116;11.608;2024-02-04T02:56:02;6.30;96.10
11399;DHT22;5755;48.116;11.608;2024-02-04T02:58:29;6.40;96.30
11399;DHT22;5755;48.116;11.608;2024-02-04T03:00:59;6.50;96.00
11399;DHT22;5755;48.116;11.608;2024-02-04T03:03:26;6.50;95.40
11399;DHT22;5755;48.116;11.608;2024-02-04T03:05:53;6.50;95.70
11399;DHT22;5755;48.116;11.608;2024-02-04T03:08:20;6.50;95.90
11399;DHT22;5755;48.116;11.608;2024-02-04T03:10:47;6.60;95.40
11399;DHT22;5755;48.116;11.608;2024-02-04T03:13:13;6.70;95.40
11399;DHT22;5755;48.116;11.608;2024-02-04T03:15:41;6.60;95.40
11399;DHT22;5755;48.116;11.608;2024-02-04T03:18:10;6.70;95.40
11399;DHT22;5755;48.116;11.608;2024-02-04T03:20:37;6.70;95.20
11399;DHT22;5755;48.116;11.608;2024-02-04T03:23:04;6.80;95.40
11399;DHT22;5755;48.116;11.608;2024-02-04T03:25:31;6.80;94.60
11399;DHT22;5755;48.116;11.608;2024-02-04T03:27:58;6.80;94.50
11399;DHT22;5755;48.116;11.608;2024-02-04T03:30:25;6.80;95.30
11399;DHT22;5755;48.116;11.608;2024-02-04T03:32:52;6.70;95.00
11399;DHT22;5755;48.116;11.608;2024-02-04T03:35:20;6.80;95.40
11399;DHT22;5755;48.116;11.608;2024-02-04T03:37:47;6.80;94.80
11399;DHT22;5755;48.116;11.608;2024-02-04T03:40:14;6.80;95.00
11399;DHT22;5755;48.116;11.608;2024-02-04T03:42:41;6.80;95.40
11399;DHT22;5755;48.116;11.608;2024-02-04T03:45:09;6.80;94.80
11399;DHT22;5755;48.116;11.608;2024-02-04T03:47:36;6.80;94.70
11399;DHT22;5755;48.116;11.608;2024-02-04T03:50:03;6.70;94.70
11399;DHT22;5755;48.116;11.608;2024-02-04T03:52:31;6.80;94.70
11399;DHT22;5755;48.116;11.608;2024-02-04T03:54:58;6.70;94.80
11399;DHT22;5755;48.116;11.608;2024-02-04T03:57:25;6.80;95.20
11399;DHT22;5755;48.116;11.608;2024-02-04T03:59:52;6.90;94.70
11399;DHT22;5755;48.116;11.608;2024-02-04T04:02:19;6.90;94.50
11399;DHT22;5755;48.116;11.608;2024-02-04T04:04:46;7.10;94.30
11399;DHT22;5755;48.116;11.608;2024-02-04T04:07:14;7.00;94.40
11399;DHT22;5755;48.116;11.608;2024-02-04T04:09:42;7.00;94.30
11399;DHT22;5755;48.116;11.608;2024-02-04T04:12:09;7.10;94.20
11399;DHT22;5755;48.116;11.608;2024-02-04T04:14:36;7.10;94.10
11399;DHT22;5755;48.116;11.608;2024-02-04T04:17:03;7.00;94.20
11399;DHT22;5755;48.116;11.608;2024-02-04T04:19:30;7.10;93.80
11399;DHT22;5755;48.116;11.608;2024-02-04T04:21:58;7.10;94.00
11399;DHT22;5755;48.116;11.608;2024-02-04T04:24:26;7.10;93.60
11399;DHT22;5755;48.116;11.608;2024-02-04T04:26:55;7.10;94.00
11399;DHT22;5755;48.116;11.608;2024-02-04T04:29:22;7.10;94.90
11399;DHT22;5755;48.116;11.608;2024-02-04T04:31:49;7.10;94.70
11399;DHT22;5755;48.116;11.608;2024-02-04T04:34:17;7.10;95.30
11399;DHT22;5755;48.116;11.608;2024-02-04T04:36:45;7.00;95.30
11399;DHT22;5755;48.116;11.608;2024-02-04T04:39:12;6.90;95.50
11399;DHT22;5755;48.116;11.608;2024-02-04T04:41:40;6.90;95.50
11399;DHT22;5755;48.116;11.608;2024-02-04T04:44:08;6.90;95.80
11399;DHT22;5755;48.116;11.608;2024-02-04T04:46:37;7.00;95.50
11399;DHT22;5755;48.116;11.608;2024-02-04T04:49:04;7.00;95.50
11399;DHT22;5755;48.116;11.608;2024-02-04T04:51:31;6.90;95.70
11399;DHT22;5755;48.116;11.608;2024-02-04T04:53:59;6.90;95.70
11399;DHT22;5755;48.116;11.608;2024-02-04T04:56:25;6.90;96.30
11399;DHT22;5755;48.116;11.608;2024-02-04T04:58:52;6.90;95.80
11399;DHT22;5755;48.116;11.608;2024-02-04T05:01:20;6.90;96.00
11399;DHT22;5755;48.116;11.608;2024-02-04T05:03:47;7.00;95.50
11399;DHT22;5755;48.116;11.608;2024-02-04T05:06:14;7.00;95.50
11399;DHT22;5755;48.116;11.608;2024-02-04T05:08:41;7.00;95.50
11399;DHT22;5755;48.116;11.608;2024-02-04T05:11:08;6.90;95.50
11399;DHT22;5755;48.116;11.608;2024-02-04T05:13:35;6.90;95.50
11399;DHT22;5755;48.116;11.608;2024-02-04T05:16:05;6.90;95.50
11399;DHT22;5755;48.116;11.608;2024-02-04T05:18:34;6.90;95.50
11399;DHT22;5755;48.116;11.608;2024-02-04T05:21:01;7.00;95.50
11399;DHT22;5755;48.116;11.608;2024-02-04T05:23:28;7.00;95.50
11399;DHT22;5755;48.116;11.608;2024-02-04T05:25:55;7.00;95.00
11399;DHT22;5755;48.116;11.608;2024-02-04T05:28:22;7.00;94.90
11399;DHT22;5755;48.116;11.608;2024-02-04T05:30:49;7.00;95.20
11399;DHT22;5755;48.116;11.608;2024-02-04T05:33:16;7.00;95.50
11399;DHT22;5755;48.116;11.608;2024-02-04T05:35:44;7.00;95.50
11399;DHT22;5755;48.116;11.608;2024-02-04T05:38:11;7.00;95.50
11399;DHT22;5755;48.116;11.608;2024-02-04T05:40:38;7.10;95.50
11399;DHT22;5755;48.116;11.608;2024-02-04T05:43:05;7.20;95.50
11399;DHT22;5755;48.116;11.608;2024-02-04T05:45:33;7.20;95.50
11399;DHT22;5755;48.116;11.608;2024-02-04T05:48:00;7.20;95.50
11399;DHT22;5755;48.116;11.608;2024-02-04T05:50:27;7.10;95.60
11399;DHT22;5755;48.116;11.608;2024-02-04T05:52:55;7.10;96.60
11399;DHT22;5755;48.116;11.608;2024-02-04T05:55:23;7.20;96.60
11399;DHT22;5755;48.116;11.608;2024-02-04T05:57:49;7.30;96.50
11399;DHT22;5755;48.116;11.608;2024-02-04T06:00:17;7.20;96.50
11399;DHT22;5755;48.116;11.608;2024-02-04T06:02:44;7.10;97.00
11399;DHT22;5755;48.116;11.608;2024-02-04T06:05:11;7.00;97.30
11399;DHT22;5755;48.116;11.608;2024-02-04T06:07:38;7.00;98.00
11399;DHT22;5755;48.116;11.608;2024-02-04T06:10:08;6.80;98.30
11399;DHT22;5755;48.116;11.608;2024-02-04T06:12:35;6.90;99.00
11399;DHT22;5755;48.116;11.608;2024-02-04T06:15:03;6.80;98.90
11399;DHT22;5755;48.116;11.608;2024-02-04T06:17:30;6.80;99.00
11399;DHT22;5755;48.116;11.608;2024-02-04T06:19:57;6.80;99.20
11399;DHT22;5755;48.116;11.608;2024-02-04T06:22:26;6.80;99.20
11399;DHT22;5755;48.116;11.608;2024-02-04T06:24:53;6.90;99.30
11399;DHT22;5755;48.116;11.608;2024-02-04T06:27:21;6.90;99.50
11399;DHT22;5755;48.116;11.608;2024-02-04T06:29:48;7.00;99.00
11399;DHT22;5755;48.116;11.608;2024-02-04T06:32:15;7.00;99.00
11399;DHT22;5755;48.116;11.608;2024-02-04T06:34:45;7.10;98.70
11399;DHT22;5755;48.116;11.608;2024-02-04T06:37:15;7.10;98.70
11399;DHT22;5755;48.116;11.608;2024-02-04T06:39:42;7.10;98.60
11399;DHT22;5755;48.116;11.608;2024-02-04T06:42:09;7.00;98.50
11399;DHT22;5755;48.116;11.608;2024-02-04T06:44:37;7.00;98.90
11399;DHT22;5755;48.116;11.608;2024-02-04T06:47:04;7.00;99.00
11399;DHT22;5755;48.116;11.608;2024-02-04T06:49:31;7.10;98.80
11399;DHT22;5755;48.116;11.608;2024-02-04T06:51:57;7.10;98.50
11399;DHT22;5755;48.116;11.608;2024-02-04T06:54:24;7.10;98.30
11399;DHT22;5755;48.116;11.608;2024-02-04T06:56:51;7.10;98.50
11399;DHT22;5755;48.116;11.608;2024-02-04T06:59:18;7.10;98.20
11399;DHT22;5755;48.116;11.608;2024-02-04T07:01:47;7.10;98.10
11399;DHT22;5755;48.116;11.608;2024-02-04T07:04:15;7.30;97.80
11399;DHT22;5755;48.116;11.608;2024-02-04T07:06:42;7.30;97.20
11399;DHT22;5755;48.116;11.608;2024-02-04T07:09:09;7.40;97.60
11399;DHT22;5755;48.116;11.608;2024-02-04T07:11:36;7.40;97.00
11399;DHT22;5755;48.116;11.608;2024-02-04T07:14:03;7.30;96.70
11399;DHT22;5755;48.116;11.608;2024-02-04T07:16:31;7.30;96.40
11399;DHT22;5755;48.116;11.608;2024-02-04T07:19:00;7.30;96.20
11399;DHT22;5755;48.116;11.608;2024-02-04T07:21:26;7.30;95.90
11399;DHT22;5755;48.116;11.608;2024-02-04T07:23:53;7.30;96.10
11399;DHT22;5755;48.116;11.608;2024-02-04T07:26:20;7.40;95.60
11399;DHT22;5755;48.116;11.608;2024-02-04T07:28:47;7.40;95.60
11399;DHT22;5755;48.116;11.608;2024-02-04T07:31:14;7.50;95.60
11399;DHT22;5755;48.116;11.608;2024-02-04T07:33:41;7.60;95.60
11399;DHT22;5755;48.116;11.608;2024-02-04T07:36:10;7.60;95.00
11399;DHT22;5755;48.116;11.608;2024-02-04T07:38:38;7.60;95.10
11399;DHT22;5755;48.116;11.608;2024-02-04T07:41:05;7.70;94.70
11399;DHT22;5755;48.116;11.608;2024-02-04T07:43:32;7.60;94.40
11399;DHT22;5755;48.116;11.608;2024-02-04T07:45:59;7.70;95.00
11399;DHT22;5755;48.116;11.608;2024-02-04T07:48:27;7.80;94.10
11399;DHT22;5755;48.116;11.608;2024-02-04T07:50:54;7.90;93.60
11399;DHT22;5755;48.116;11.608;2024-02-04T07:53:22;7.90;93.50
11399;DHT22;5755;48.116;11.608;2024-02-04T07:55:49;7.90;93.60
11399;DHT22;5755;48.116;11.608;2024-02-04T07:58:16;7.90;93.50
11399;DHT22;5755;48.116;11.608;2024-02-04T08:00:43;8.00;93.00
11399;DHT22;5755;48.116;11.608;2024-02-04T08:03:10;7.90;93.00
11399;DHT22;5755;48.116;11.608;2024-02-04T08:05:37;8.00;93.00
11399;DHT22;5755;48.116;11.608;2024-02-04T08:08:03;8.10;92.60
11399;DHT22;5755;48.116;11.608;2024-02-04T08:10:32;8.20;92.40
11399;DHT22;5755;48.116;11.608;2024-02-04T08:12:58;8.30;92.10
11399;DHT22;5755;48.116;11.608;2024-02-04T08:15:25;8.30;91.70
11399;DHT22;5755;48.116;11.608;2024-02-04T08:17:52;8.30;91.50
11399;DHT22;5755;48.116;11.608;2024-02-04T08:20:19;8.30;91.40
11399;DHT22;5755;48.116;11.608;2024-02-04T08:22:47;8.30;91.60
11399;DHT22;5755;48.116;11.608;2024-02-04T08:25:14;8.40;91.30
11399;DHT22;5755;48.116;11.608;2024-02-04T08:27:43;8.50;90.80
11399;DHT22;5755;48.116;11.608;2024-02-04T08:30:10;8.80;90.40
11399;DHT22;5755;48.116;11.608;2024-02-04T08:32:38;8.80;90.40
11399;DHT22;5755;48.116;11.608;2024-02-04T08:35:06;8.80;90.40
11399;DHT22;5755;48.116;11.608;2024-02-04T08:37:33;8.90;90.00
11399;DHT22;5755;48.116;11.608;2024-02-04T08:40:01;8.90;89.90
11399;DHT22;5755;48.116;11.608;2024-02-04T08:42:29;8.90;89.70
11399;DHT22;5755;48.116;11.608;2024-02-04T08:44:57;9.00;88.00
11399;DHT22;5755;48.116;11.608;2024-02-04T08:47:24;9.10;88.20
11399;DHT22;5755;48.116;11.608;2024-02-04T08:49:51;9.10;86.20
11399;DHT22;5755;48.116;11.608;2024-02-04T08:52:18;9.20;86.10
11399;DHT22;5755;48.116;11.608;2024-02-04T08:54:45;9.30;84.30
11399;DHT22;5755;48.116;11.608;2024-02-04T08:57:12;9.30;83.60
11399;DHT22;5755;48.116;11.608;2024-02-04T08:59:39;9.50;83.50
11399;DHT22;5755;48.116;11.608;2024-02-04T09:02:08;9.50;81.40
11399;DHT22;5755;48.116;11.608;2024-02-04T09:04:36;9.50;82.50
11399;DHT22;5755;48.116;11.608;2024-02-04T09:07:12;9.60;81.00
11399;DHT22;5755;48.116;11.608;2024-02-04T09:09:41;9.70;79.90
11399;DHT22;5755;48.116;11.608;2024-02-04T09:12:11;10.00;77.30
11399;DHT22;5755;48.116;11.608;2024-02-04T09:14:38;10.20;74.90
11399;DHT22;5755;48.116;11.608;2024-02-04T09:17:08;10.40;73.50
11399;DHT22;5755;48.116;11.608;2024-02-04T09:19:35;10.50;67.30
11399;DHT22;5755;48.116;11.608;2024-02-04T09:22:03;10.50;66.70
11399;DHT22;5755;48.116;11.608;2024-02-04T09:24:30;10.50;67.30
11399;DHT22;5755;48.116;11.608;2024-02-04T09:26:57;10.60;64.20
11399;DHT22;5755;48.116;11.608;2024-02-04T09:29:27;10.70;64.90
11399;DHT22;5755;48.116;11.608;2024-02-04T09:31:54;10.90;61.80
11399;DHT22;5755;48.116;11.608;2024-02-04T09:34:23;10.70;62.70
11399;DHT22;5755;48.116;11.608;2024-02-04T09:36:50;10.50;64.60
11399;DHT22;5755;48.116;11.608;2024-02-04T09:39:19;10.50;63.20
11399;DHT22;5755;48.116;11.608;2024-02-04T09:41:47;10.40;65.20
11399;DHT22;5755;48.116;11.608;2024-02-04T09:44:15;10.20;65.80
11399;DHT22;5755;48.116;11.608;2024-02-04T09:46:42;10.10;66.40
11399;DHT22;5755;48.116;11.608;2024-02-04T09:49:09;10.10;68.70
11399;DHT22;5755;48.116;11.608;2024-02-04T09:51:39;10.00;66.10
11399;DHT22;5755;48.116;11.608;2024-02-04T09:54:06;10.00;68.10
11399;DHT22;5755;48.116;11.608;2024-02-04T09:56:34;10.10;69.90
11399;DHT22;5755;48.116;11.608;2024-02-04T09:59:03;10.20;69.50
11399;DHT22;5755;48.116;11.608;2024-02-04T10:01:31;10.30;67.50
11399;DHT22;5755;48.116;11.608;2024-02-04T10:03:59;10.30;68.60
11399;DHT22;5755;48.116;11.608;2024-02-04T10:06:26;10.30;66.10
11399;DHT22;5755;48.116;11.608;2024-02-04T10:08:54;10.20;67.30
11399;DHT22;5755;48.116;11.608;2024-02-04T10:11:22;10.30;66.00
11399;DHT22;5755;48.116;11.608;2024-02-04T10:13:49;10.20;67.10
11399;DHT22;5755;48.116;11.608;2024-02-04T10:16:17;10.30;68.90
11399;DHT22;5755;48.116;11.608;2024-02-04T10:18:44;10.40;66.00
11399;DHT22;5755;48.116;11.608;2024-02-04T10:21:15;10.40;68.30
11399;DHT22;5755;48.116;11.608;2024-02-04T10:23:43;10.60;64.90
11399;DHT22;5755;48.116;11.608;2024-02-04T10:26:12;10.30;66.30
11399;DHT22;5755;48.116;11.608;2024-02-04T10:28:39;10.20;66.60
11399;DHT22;5755;48.116;11.608;2024-02-04T10:31:08;10.30;66.70
11399;DHT22;5755;48.116;11.608;2024-02-04T10:33:35;10.30;66.40
11399;DHT22;5755;48.116;11.608;2024-02-04T10:36:03;10.30;66.40
11399;DHT22;5755;48.116;11.608;2024-02-04T10:38:30;10.30;66.10
11399;DHT22;5755;48.116;11.608;2024-02-04T10:40:59;10.50;66.90
11399;DHT22;5755;48.116;11.608;2024-02-04T10:43:31;10.70;63.50
11399;DHT22;5755;48.116;11.608;2024-02-04T10:46:03;11.20;63.00
11399;DHT22;5755;48.116;11.608;2024-02-04T10:48:36;11.40;57.60
11399;DHT22;5755;48.116;11.608;2024-02-04T10:51:11;11.20;58.20
11399;DHT22;5755;48.116;11.608;2024-02-04T10:53:41;11.30;59.80
11399;DHT22;5755;48.116;11.608;2024-02-04T10:56:14;11.60;57.00
11399;DHT22;5755;48.116;11.608;2024-02-04T10:58:45;11.70;55.20
11399;DHT22;5755;48.116;11.608;2024-02-04T11:01:13;11.80;54.60
11399;DHT22;5755;48.116;11.608;2024-02-04T11:03:41;12.10;53.10
11399;DHT22;5755;48.116;11.608;2024-02-04T11:06:08;12.50;50.80
11399;DHT22;5755;48.116;11.608;2024-02-04T11:08:38;13.00;49.50
11399;DHT22;5755;48.116;11.608;2024-02-04T11:11:05;13.40;45.90
11399;DHT22;5755;48.116;11.608;2024-02-04T11:13:32;13.60;42.40
11399;DHT22;5755;48.116;11.608;2024-02-04T11:16:07;13.30;40.50
11399;DHT22;5755;48.116;11.608;2024-02-04T11:18:52;13.00;41.90
11399;DHT22;5755;48.116;11.608;2024-02-04T11:21:53;13.00;44.00
11399;DHT22;5755;48.116;11.608;2024-02-04T11:24:33;13.20;43.00
11399;DHT22;5755;48.116;11.608;2024-02-04T11:27:04;12.90;42.40
11399;DHT22;5755;48.116;11.608;2024-02-04T11:29:31;12.70;42.30
11399;DHT22;5755;48.116;11.608;2024-02-04T11:32:01;12.60;45.10
11399;DHT22;5755;48.116;11.608;2024-02-04T11:34:33;12.60;44.10
11399;DHT22;5755;48.116;11.608;2024-02-04T11:37:00;12.40;44.90
11399;DHT22;5755;48.116;11.608;2024-02-04T11:39:28;12.40;46.70
11399;DHT22;5755;48.116;11.608;2024-02-04T11:41:55;12.60;46.70
11399;DHT22;5755;48.116;11.608;2024-02-04T11:44:24;12.40;46.30
11399;DHT22;5755;48.116;11.608;2024-02-04T11:46:52;12.40;46.70
11399;DHT22;5755;48.116;11.608;2024-02-04T11:49:25;12.30;47.70
11399;DHT22;5755;48.116;11.608;2024-02-04T11:51:52;12.20;48.10
11399;DHT22;5755;48.116;11.608;2024-02-04T11:54:20;12.20;48.80
11399;DHT22;5755;48.116;11.608;2024-02-04T11:56:48;12.20;48.80
11399;DHT22;5755;48.116;11.608;2024-02-04T11:59:18;12.10;48.70
11399;DHT22;5755;48.116;11.608;2024-02-04T12:04:39;12.20;48.80
11399;DHT22;5755;48.116;11.608;2024-02-04T12:07:08;12.30;48.90
11399;DHT22;5755;48.116;11.608;2024-02-04T12:09:37;12.20;48.80
11399;DHT22;5755;48.116;11.608;2024-02-04T12:12:08;12.20;48.80
11399;DHT22;5755;48.116;11.608;2024-02-04T12:14:36;12.10;48.40
11399;DHT22;5755;48.116;11.608;2024-02-04T12:17:07;12.00;47.50
11399;DHT22;5755;48.116;11.608;2024-02-04T12:19:39;11.80;48.40
11399;DHT22;5755;48.116;11.608;2024-02-04T12:22:06;11.80;48.40
11399;DHT22;5755;48.116;11.608;2024-02-04T12:24:35;11.90;48.50
11399;DHT22;5755;48.116;11.608;2024-02-04T12:27:03;12.00;48.60
11399;DHT22;5755;48.116;11.608;2024-02-04T12:29:31;12.20;47.70
11399;DHT22;5755;48.116;11.608;2024-02-04T12:31:58;12.20;45.90
11399;DHT22;5755;48.116;11.608;2024-02-04T12:34:25;12.10;47.20
11399;DHT22;5755;48.116;11.608;2024-02-04T12:36:59;12.00;48.60
11399;DHT22;5755;48.116;11.608;2024-02-04T12:46:07;11.90;48.50
11399;DHT22;5755;48.116;11.608;2024-02-04T12:48:34;11.70;48.30
11399;DHT22;5755;48.116;11.608;2024-02-04T12:51:02;11.70;48.40
11399;DHT22;5755;48.116;11.608;2024-02-04T12:53:31;11.70;48.30
11399;DHT22;5755;48.116;11.608;2024-02-04T12:55:58;11.70;48.40
11399;DHT22;5755;48.116;11.608;2024-02-04T12:58:25;11.70;48.40
11399;DHT22;5755;48.116;11.608;2024-02-04T13:01:00;11.80;48.40
11399;DHT22;5755;48.116;11.608;2024-02-04T13:03:27;11.80;48.40
11399;DHT22;5755;48.116;11.608;2024-02-04T13:05:57;11.90;48.60
11399;DHT22;5755;48.116;11.608;2024-02-04T13:08:25;12.00;48.60
11399;DHT22;5755;48.116;11.608;2024-02-04T13:10:55;12.10;48.70
11399;DHT22;5755;48.116;11.608;2024-02-04T13:13:22;12.40;48.10
11399;DHT22;5755;48.116;11.608;2024-02-04T13:15:52;12.50;45.20
11399;DHT22;5755;48.116;11.608;2024-02-04T13:18:19;12.60;45.30
11399;DHT22;5755;48.116;11.608;2024-02-04T13:20:47;12.50;45.50
11399;DHT22;5755;48.116;11.608;2024-02-04T13:23:17;12.50;44.80
11399;DHT22;5755;48.116;11.608;2024-02-04T13:25:44;12.40;45.80
11399;DHT22;5755;48.116;11.608;2024-02-04T13:28:14;12.30;44.70
11399;DHT22;5755;48.116;11.608;2024-02-04T13:30:41;12.30;45.30
11399;DHT22;5755;48.116;11.608;2024-02-04T13:33:07;12.30;45.10
11399;DHT22;5755;48.116;11.608;2024-02-04T13:35:35;12.20;45.80
11399;DHT22;5755;48.116;11.608;2024-02-04T13:38:01;12.10;45.90
11399;DHT22;5755;48.116;11.608;2024-02-04T13:40:29;12.20;46.30
11399;DHT22;5755;48.116;11.608;2024-02-04T13:42:56;12.10;45.10
11399;DHT22;5755;48.116;11.608;2024-02-04T13:45:25;12.20;45.90
11399;DHT22;5755;48.116;11.608;2024-02-04T13:47:52;12.00;45.90
11399;DHT22;5755;48.116;11.608;2024-02-04T13:50:19;12.00;47.30
11399;DHT22;5755;48.116;11.608;2024-02-04T13:52:46;12.00;48.60
11399;DHT22;5755;48.116;11.608;2024-02-04T13:55:13;12.00;48.60
11399;DHT22;5755;48.116;11.608;2024-02-04T13:57:40;12.00;48.60
11399;DHT22;5755;48.116;11.608;2024-02-04T14:00:08;11.90;48.50
11399;DHT22;5755;48.116;11.608;2024-02-04T14:02:36;12.00;48.60
11399;DHT22;5755;48.116;11.608;2024-02-04T14:05:04;12.10;49.90
11399;DHT22;5755;48.116;11.608;2024-02-04T14:07:32;12.10;48.70
11399;DHT22;5755;48.116;11.608;2024-02-04T14:09:59;12.00;48.60
11399;DHT22;5755;48.116;11.608;2024-02-04T14:12:26;12.00;48.60
11399;DHT22;5755;48.116;11.608;2024-02-04T14:14:54;11.90;48.50
11399;DHT22;5755;48.116;11.608;2024-02-04T14:17:21;12.00;48.60
11399;DHT22;5755;48.116;11.608;2024-02-04T14:19:50;11.90;48.50
11399;DHT22;5755;48.116;11.608;2024-02-04T14:22:17;11.80;48.50
11399;DHT22;5755;48.116;11.608;2024-02-04T14:24:44;11.70;50.60
11399;DHT22;5755;48.116;11.608;2024-02-04T14:27:11;11.80;50.50
11399;DHT22;5755;48.116;11.608;2024-02-04T14:29:39;11.70;50.70
11399;DHT22;5755;48.116;11.608;2024-02-04T14:32:06;11.70;51.00
11399;DHT22;5755;48.116;11.608;2024-02-04T14:34:34;11.70;51.10
11399;DHT22;5755;48.116;11.608;2024-02-04T14:37:02;11.70;51.50
11399;DHT22;5755;48.116;11.608;2024-02-04T14:39:29;11.70;52.00
11399;DHT22;5755;48.116;11.608;2024-02-04T14:41:57;11.70;52.30
11399;DHT22;5755;48.116;11.608;2024-02-04T14:44:23;11.70;51.90
11399;DHT22;5755;48.116;11.608;2024-02-04T14:46:50;11.70;51.40
11399;DHT22;5755;48.116;11.608;2024-02-04T14:49:17;11.70;51.80
11399;DHT22;5755;48.116;11.608;2024-02-04T14:51:44;11.70;50.90
11399;DHT22;5755;48.116;11.608;2024-02-04T14:54:14;11.70;51.50
11399;DHT22;5755;48.116;11.608;2024-02-04T14:56:42;11.60;51.50
11399;DHT22;5755;48.116;11.608;2024-02-04T14:59:10;11.60;51.00
11399;DHT22;5755;48.116;11.608;2024-02-04T15:01:37;11.60;52.40
11399;DHT22;5755;48.116;11.608;2024-02-04T15:04:04;11.50;52.30
11399;DHT22;5755;48.116;11.608;2024-02-04T15:06:31;11.50;52.60
11399;DHT22;5755;48.116;11.608;2024-02-04T15:09:00;11.50;52.30
11399;DHT22;5755;48.116;11.608;2024-02-04T15:11:30;11.60;52.70
11399;DHT22;5755;48.116;11.608;2024-02-04T15:13:58;11.60;52.60
11399;DHT22;5755;48.116;11.608;2024-02-04T15:16:25;11.50;52.70
11399;DHT22;5755;48.116;11.608;2024-02-04T15:18:53;11.60;52.60
11399;DHT22;5755;48.116;11.608;2024-02-04T15:21:20;11.60;53.20
11399;DHT22;5755;48.116;11.608;2024-02-04T15:23:50;11.60;52.50
11399;DHT22;5755;48.116;11.608;2024-02-04T15:26:17;11.60;52.70
11399;DHT22;5755;48.116;11.608;2024-02-04T15:28:48;11.50;52.80
11399;DHT22;5755;48.116;11.608;2024-02-04T15:31:16;11.60;53.60
11399;DHT22;5755;48.116;11.608;2024-02-04T15:33:44;11.60;53.00
11399;DHT22;5755;48.116;11.608;2024-02-04T15:36:11;11.60;52.90
11399;DHT22;5755;48.116;11.608;2024-02-04T15:38:38;11.60;53.60
11399;DHT22;5755;48.116;11.608;2024-02-04T15:41:05;11.50;52.50
11399;DHT22;5755;48.116;11.608;2024-02-04T15:43:32;11.60;53.50
11399;DHT22;5755;48.116;11.608;2024-02-04T15:46:03;11.50;52.50
11399;DHT22;5755;48.116;11.608;2024-02-04T15:48:35;11.50;52.50
11399;DHT22;5755;48.116;11.608;2024-02-04T15:51:04;11.50;52.90
11399;DHT22;5755;48.116;11.608;2024-02-04T15:53:32;11.60;51.70